sensor_id;sensor_type;location;lat;lon;timestamp;pressure;altitude;pressure_sealevel;temperature;humidity
75008;BME280;63554;48.940;12.050;2022-11-14T00:01:21;97480.16;;;6.62;73.22
75008;BME280;63554;48.940;12.050;2022-11-14T00:05:23;97481.38;;;6.60;73.48
75008;BME280;63554;48.940;12.050;2022-11-14T00:09:26;97480.47;;;6.52;73.42
75008;BME280;63554;48.940;12.050;2022-11-14T00:13:29;97488.09;;;6.49;73.47
75008;BME280;63554;48.940;12.050;2022-11-14T00:17:34;97485.25;;;6.36;74.70
75008;BME280;63554;48.940;12.050;2022-11-14T00:21:36;97495.63;;;6.39;74.07
75008;BME280;63554;48.940;12.050;2022-11-14T00:25:39;97499.59;;;6.43;73.83
75008;BME280;63554;48.940;12.050;2022-11-14T00:29:42;97484.63;;;6.33;74.57
75008;BME280;63554;48.940;12.050;2022-11-14T00:33:46;97493.16;;;6.22;75.30
75008;BME280;63554;48.940;12.050;2022-11-14T00:37:49;97492.34;;;6.22;75.38
75008;BME280;63554;48.940;12.050;2022-11-14T00:41:52;97487.16;;;6.05;75.37
75008;BME280;63554;48.940;12.050;2022-11-14T00:45:54;97493.53;;;5.89;76.06
75008;BME280;63554;48.940;12.050;2022-11-14T00:49:58;97494.88;;;5.79;76.56
75008;BME280;63554;48.940;12.050;2022-11-14T00:54:02;97496.03;;;5.76;77.26
75008;BME280;63554;48.940;12.050;2022-11-14T00:58:05;97493.28;;;5.69;77.25
75008;BME280;63554;48.940;12.050;2022-11-14T01:02:07;97480.22;;;5.66;77.65
75008;BME280;63554;48.940;12.050;2022-11-14T01:06:11;97479.56;;;5.64;77.73
75008;BME280;63554;48.940;12.050;2022-11-14T01:10:16;97478.91;;;5.62;78.11
75008;BME280;63554;48.940;12.050;2022-11-14T01:14:19;97478.56;;;5.65;77.84
75008;BME280;63554;48.940;12.050;2022-11-14T01:18:22;97474.19;;;5.64;77.81
75008;BME280;63554;48.940;12.050;2022-11-14T01:22:28;97471.97;;;5.68;77.37
75008;BME280;63554;48.940;12.050;2022-11-14T01:26:30;97468.94;;;5.56;78.13
75008;BME280;63554;48.940;12.050;2022-11-14T01:30:33;97463.09;;;5.52;78.02
75008;BME280;63554;48.940;12.050;2022-11-14T01:34:36;97463.47;;;5.49;78.31
75008;BME280;63554;48.940;12.050;2022-11-14T01:38:40;97463.66;;;5.48;78.62
75008;BME280;63554;48.940;12.050;2022-11-14T01:47:21;97457.75;;;5.38;79.28
75008;BME280;63554;48.940;12.050;2022-11-14T01:51:28;97450.44;;;5.31;78.99
75008;BME280;63554;48.940;12.050;2022-11-14T01:55:34;97436.44;;;5.36;79.23
75008;BME280;63554;48.940;12.050;2022-11-14T01:59:39;97425.06;;;5.34;78.61
75008;BME280;63554;48.940;12.050;2022-11-14T02:03:45;97420.81;;;5.40;78.51
75008;BME280;63554;48.940;12.050;2022-11-14T02:07:50;97425.50;;;5.52;78.49
75008;BME280;63554;48.940;12.050;2022-11-14T02:11:56;97414.34;;;5.49;78.32
75008;BME280;63554;48.940;12.050;2022-11-14T02:16:00;97420.59;;;5.56;78.25
75008;BME280;63554;48.940;12.050;2022-11-14T02:20:13;97414.13;;;5.65;77.69
75008;BME280;63554;48.940;12.050;2022-11-14T02:24:16;97425.97;;;5.71;77.71
75008;BME280;63554;48.940;12.050;2022-11-14T02:28:19;97424.75;;;5.73;78.03
75008;BME280;63554;48.940;12.050;2022-11-14T02:32:22;97423.94;;;5.58;78.13
75008;BME280;63554;48.940;12.050;2022-11-14T02:36:26;97418.50;;;5.51;78.19
75008;BME280;63554;48.940;12.050;2022-11-14T02:40:29;97425.78;;;5.43;78.55
75008;BME280;63554;48.940;12.050;2022-11-14T02:44:32;97428.75;;;5.33;78.63
75008;BME280;63554;48.940;12.050;2022-11-14T02:48:34;97426.06;;;5.18;78.45
75008;BME280;63554;48.940;12.050;2022-11-14T02:52:38;97421.81;;;5.09;78.96
75008;BME280;63554;48.940;12.050;2022-11-14T02:56:41;97413.06;;;4.92;78.99
75008;BME280;63554;48.940;12.050;2022-11-14T03:00:44;97404.00;;;4.78;79.58
75008;BME280;63554;48.940;12.050;2022-11-14T03:05:07;97409.81;;;4.67;79.57
75008;BME280;63554;48.940;12.050;2022-11-14T03:09:11;97421.19;;;4.46;79.82
75008;BME280;63554;48.940;12.050;2022-11-14T03:13:14;97415.47;;;4.26;80.41
75008;BME280;63554;48.940;12.050;2022-11-14T03:17:16;97401.03;;;4.12;81.22
75008;BME280;63554;48.940;12.050;2022-11-14T03:21:20;97422.31;;;4.05;81.13
75008;BME280;63554;48.940;12.050;2022-11-14T03:25:25;97407.66;;;3.93;81.71
75008;BME280;63554;48.940;12.050;2022-11-14T03:29:27;97412.41;;;3.83;82.27
75008;BME280;63554;48.940;12.050;2022-11-14T03:33:30;97417.44;;;3.78;82.30
75008;BME280;63554;48.940;12.050;2022-11-14T03:37:33;97410.44;;;3.68;82.37
75008;BME280;63554;48.940;12.050;2022-11-14T03:41:37;97421.50;;;3.65;82.42
75008;BME280;63554;48.940;12.050;2022-11-14T03:45:39;97413.69;;;3.55;82.63
75008;BME280;63554;48.940;12.050;2022-11-14T03:49:42;97418.59;;;3.44;83.08
75008;BME280;63554;48.940;12.050;2022-11-14T03:53:46;97412.63;;;3.25;84.24
75008;BME280;63554;48.940;12.050;2022-11-14T03:57:50;97427.06;;;3.08;85.22
75008;BME280;63554;48.940;12.050;2022-11-14T04:01:52;97418.38;;;2.97;85.58
75008;BME280;63554;48.940;12.050;2022-11-14T04:05:55;97423.41;;;2.92;85.84
75008;BME280;63554;48.940;12.050;2022-11-14T04:09:58;97439.13;;;2.87;86.02
75008;BME280;63554;48.940;12.050;2022-11-14T04:14:02;97426.94;;;2.76;85.75
75008;BME280;63554;48.940;12.050;2022-11-14T04:18:05;97420.91;;;2.66;86.09
75008;BME280;63554;48.940;12.050;2022-11-14T04:22:08;97405.56;;;2.27;86.38
75008;BME280;63554;48.940;12.050;2022-11-14T04:26:10;97421.06;;;2.15;87.02
75008;BME280;63554;48.940;12.050;2022-11-14T04:30:15;97439.13;;;2.22;87.35
75008;BME280;63554;48.940;12.050;2022-11-14T04:34:18;97445.75;;;2.09;87.47
75008;BME280;63554;48.940;12.050;2022-11-14T04:38:20;97456.59;;;2.08;87.53
75008;BME280;63554;48.940;12.050;2022-11-14T04:42:23;97444.41;;;2.05;87.98
75008;BME280;63554;48.940;12.050;2022-11-14T04:46:27;97454.28;;;2.13;88.27
75008;BME280;63554;48.940;12.050;2022-11-14T04:50:30;97459.91;;;1.93;89.12
75008;BME280;63554;48.940;12.050;2022-11-14T04:54:33;97455.75;;;1.56;89.23
75008;BME280;63554;48.940;12.050;2022-11-14T04:58:35;97470.72;;;1.15;88.84
75008;BME280;63554;48.940;12.050;2022-11-14T05:02:39;97468.59;;;0.74;89.92
75008;BME280;63554;48.940;12.050;2022-11-14T05:06:42;97478.25;;;0.49;90.08
75008;BME280;63554;48.940;12.050;2022-11-14T05:10:45;97482.34;;;0.26;90.35
75008;BME280;63554;48.940;12.050;2022-11-14T05:14:48;97481.19;;;0.10;91.08
75008;BME280;63554;48.940;12.050;2022-11-14T05:18:53;97455.72;;;0.08;90.82
75008;BME280;63554;48.940;12.050;2022-11-14T05:22:56;97466.47;;;0.16;90.77
75008;BME280;63554;48.940;12.050;2022-11-14T05:26:58;97473.69;;;0.24;90.48
75008;BME280;63554;48.940;12.050;2022-11-14T05:31:02;97479.69;;;0.26;89.85
75008;BME280;63554;48.940;12.050;2022-11-14T05:35:07;97465.78;;;0.14;90.10
75008;BME280;63554;48.940;12.050;2022-11-14T05:39:10;97453.97;;;0.16;90.11
75008;BME280;63554;48.940;12.050;2022-11-14T05:43:13;97461.06;;;0.26;90.14
75008;BME280;63554;48.940;12.050;2022-11-14T05:47:15;97442.31;;;1.74;94.41
75008;BME280;63554;48.940;12.050;2022-11-14T05:51:19;97447.25;;;3.19;95.21
75008;BME280;63554;48.940;12.050;2022-11-14T05:55:22;97450.91;;;3.73;95.43
75008;BME280;63554;48.940;12.050;2022-11-14T05:59:25;97433.09;;;3.58;95.38
75008;BME280;63554;48.940;12.050;2022-11-14T06:03:30;97447.63;;;2.99;94.48
75008;BME280;63554;48.940;12.050;2022-11-14T06:07:34;97473.19;;;2.52;91.37
75008;BME280;63554;48.940;12.050;2022-11-14T06:11:39;97485.72;;;1.85;88.03
75008;BME280;63554;48.940;12.050;2022-11-14T06:15:42;97497.84;;;1.10;88.13
75008;BME280;63554;48.940;12.050;2022-11-14T06:19:44;97513.50;;;0.87;88.51
75008;BME280;63554;48.940;12.050;2022-11-14T06:23:49;97503.78;;;0.60;88.78
75008;BME280;63554;48.940;12.050;2022-11-14T06:27:52;97511.69;;;0.52;89.75
75008;BME280;63554;48.940;12.050;2022-11-14T06:31:55;97512.53;;;0.34;89.91
75008;BME280;63554;48.940;12.050;2022-11-14T06:35:58;97518.16;;;0.31;89.75
75008;BME280;63554;48.940;12.050;2022-11-14T06:40:03;97524.88;;;0.35;89.77
75008;BME280;63554;48.940;12.050;2022-11-14T06:44:06;97521.28;;;0.27;90.04
75008;BME280;63554;48.940;12.050;2022-11-14T06:48:10;97519.97;;;0.13;90.77
75008;BME280;63554;48.940;12.050;2022-11-14T06:52:12;97511.16;;;0.12;90.35
75008;BME280;63554;48.940;12.050;2022-11-14T06:56:17;97515.66;;;0.12;90.18
75008;BME280;63554;48.940;12.050;2022-11-14T07:00:21;97519.97;;;0.13;90.24
75008;BME280;63554;48.940;12.050;2022-11-14T07:04:24;97507.19;;;0.16;90.47
75008;BME280;63554;48.940;12.050;2022-11-14T07:08:27;97498.66;;;-0.05;91.36
75008;BME280;63554;48.940;12.050;2022-11-14T07:12:31;97507.13;;;0.08;91.38
75008;BME280;63554;48.940;12.050;2022-11-14T07:16:35;97513.13;;;0.10;91.26
75008;BME280;63554;48.940;12.050;2022-11-14T07:20:37;97519.81;;;0.14;91.31
75008;BME280;63554;48.940;12.050;2022-11-14T07:24:40;97521.41;;;0.07;92.04
75008;BME280;63554;48.940;12.050;2022-11-14T07:28:44;97503.03;;;-0.14;91.97
75008;BME280;63554;48.940;12.050;2022-11-14T07:32:54;97505.66;;;-0.32;92.58
75008;BME280;63554;48.940;12.050;2022-11-14T07:36:56;97515.44;;;-0.32;93.05
75008;BME280;63554;48.940;12.050;2022-11-14T07:41:01;97517.31;;;-0.15;92.85
75008;BME280;63554;48.940;12.050;2022-11-14T07:45:07;97509.53;;;-0.26;92.50
75008;BME280;63554;48.940;12.050;2022-11-14T07:49:13;97507.16;;;-0.19;92.97
75008;BME280;63554;48.940;12.050;2022-11-14T07:53:15;97503.84;;;-0.04;92.73
75008;BME280;63554;48.940;12.050;2022-11-14T07:57:18;97508.63;;;0.11;92.31
75008;BME280;63554;48.940;12.050;2022-11-14T08:01:23;97490.47;;;0.42;92.04
75008;BME280;63554;48.940;12.050;2022-11-14T08:05:25;97485.38;;;0.31;91.16
75008;BME280;63554;48.940;12.050;2022-11-14T08:09:28;97485.47;;;0.57;91.92
75008;BME280;63554;48.940;12.050;2022-11-14T08:13:32;97476.56;;;1.18;90.85
75008;BME280;63554;48.940;12.050;2022-11-14T08:17:37;97474.16;;;1.68;88.89
75008;BME280;63554;48.940;12.050;2022-11-14T08:21:40;97485.72;;;1.85;86.94
75008;BME280;63554;48.940;12.050;2022-11-14T08:25:43;97475.09;;;1.93;86.73
75008;BME280;63554;48.940;12.050;2022-11-14T08:29:45;97493.03;;;2.33;86.12
75008;BME280;63554;48.940;12.050;2022-11-14T08:33:51;97489.56;;;2.57;84.41
75008;BME280;63554;48.940;12.050;2022-11-14T08:37:54;97478.69;;;2.84;84.33
75008;BME280;63554;48.940;12.050;2022-11-14T08:41:57;97476.34;;;3.05;83.70
75008;BME280;63554;48.940;12.050;2022-11-14T08:46:01;97470.78;;;3.40;82.88
75008;BME280;63554;48.940;12.050;2022-11-14T08:50:06;97472.69;;;3.62;81.64
75008;BME280;63554;48.940;12.050;2022-11-14T08:54:09;97468.28;;;5.39;83.03
75008;BME280;63554;48.940;12.050;2022-11-14T08:58:12;97452.03;;;6.22;82.79
75008;BME280;63554;48.940;12.050;2022-11-14T09:02:15;97451.53;;;5.67;75.14
75008;BME280;63554;48.940;12.050;2022-11-14T09:06:20;97463.75;;;4.87;77.38
75008;BME280;63554;48.940;12.050;2022-11-14T09:10:22;97470.06;;;4.25;79.77
75008;BME280;63554;48.940;12.050;2022-11-14T09:14:25;97470.47;;;4.36;80.73
75008;BME280;63554;48.940;12.050;2022-11-14T09:18:28;97462.78;;;4.80;79.52
75008;BME280;63554;48.940;12.050;2022-11-14T09:22:33;97463.81;;;5.17;79.38
75008;BME280;63554;48.940;12.050;2022-11-14T09:26:36;97453.50;;;5.43;77.82
75008;BME280;63554;48.940;12.050;2022-11-14T09:30:38;97446.72;;;5.62;77.32
75008;BME280;63554;48.940;12.050;2022-11-14T09:34:42;97451.72;;;5.95;77.41
75008;BME280;63554;48.940;12.050;2022-11-14T09:38:47;97453.06;;;6.64;76.30
75008;BME280;63554;48.940;12.050;2022-11-14T09:42:59;97452.22;;;7.35;74.58
75008;BME280;63554;48.940;12.050;2022-11-14T09:47:08;97444.22;;;7.83;72.76
75008;BME280;63554;48.940;12.050;2022-11-14T09:51:21;97451.44;;;8.24;72.07
75008;BME280;63554;48.940;12.050;2022-11-14T09:55:29;97448.06;;;8.90;71.81
75008;BME280;63554;48.940;12.050;2022-11-14T09:59:37;97435.53;;;9.56;70.43
75008;BME280;63554;48.940;12.050;2022-11-14T10:03:48;97433.13;;;9.99;68.15
75008;BME280;63554;48.940;12.050;2022-11-14T10:08:05;97437.59;;;10.32;66.72
75008;BME280;63554;48.940;12.050;2022-11-14T10:12:17;97434.03;;;10.70;66.14
75008;BME280;63554;48.940;12.050;2022-11-14T10:16:30;97442.41;;;10.94;65.19
75008;BME280;63554;48.940;12.050;2022-11-14T10:20:41;97443.59;;;11.30;63.75
75008;BME280;63554;48.940;12.050;2022-11-14T10:24:57;97427.22;;;11.43;64.06
75008;BME280;63554;48.940;12.050;2022-11-14T10:29:26;97433.94;;;11.77;63.09
75008;BME280;63554;48.940;12.050;2022-11-14T10:33:41;97444.59;;;12.16;61.57
75008;BME280;63554;48.940;12.050;2022-11-14T10:37:56;97455.06;;;12.61;60.11
75008;BME280;63554;48.940;12.050;2022-11-14T10:42:02;97448.06;;;12.53;59.97
75008;BME280;63554;48.940;12.050;2022-11-14T10:46:15;97448.78;;;12.91;58.73
75008;BME280;63554;48.940;12.050;2022-11-14T10:50:21;97453.81;;;13.17;58.91
75008;BME280;63554;48.940;12.050;2022-11-14T10:54:27;97447.34;;;13.42;59.82
75008;BME280;63554;48.940;12.050;2022-11-14T10:58:34;97447.72;;;13.45;57.46
75008;BME280;63554;48.940;12.050;2022-11-14T11:02:52;97445.75;;;14.05;57.36
75008;BME280;63554;48.940;12.050;2022-11-14T11:06:56;97447.47;;;13.94;56.09
75008;BME280;63554;48.940;12.050;2022-11-14T11:11:00;97440.13;;;13.95;55.30
75008;BME280;63554;48.940;12.050;2022-11-14T11:15:22;97449.47;;;13.52;56.21
75008;BME280;63554;48.940;12.050;2022-11-14T11:19:26;97451.66;;;13.08;56.46
75008;BME280;63554;48.940;12.050;2022-11-14T11:23:31;97451.34;;;13.28;57.38
75008;BME280;63554;48.940;12.050;2022-11-14T11:27:34;97443.41;;;13.97;54.92
75008;BME280;63554;48.940;12.050;2022-11-14T11:31:51;97438.78;;;13.97;55.41
75008;BME280;63554;48.940;12.050;2022-11-14T11:35:56;97443.22;;;13.63;56.78
75008;BME280;63554;48.940;12.050;2022-11-14T11:40:03;97441.81;;;12.53;59.79
75008;BME280;63554;48.940;12.050;2022-11-14T11:44:11;97446.03;;;12.79;59.01
75008;BME280;63554;48.940;12.050;2022-11-14T11:48:18;97436.47;;;12.76;59.35
75008;BME280;63554;48.940;12.050;2022-11-14T11:52:29;97432.75;;;12.59;59.93
75008;BME280;63554;48.940;12.050;2022-11-14T11:56:34;97428.38;;;12.58;59.63
75008;BME280;63554;48.940;12.050;2022-11-14T12:00:39;97424.84;;;13.11;57.72
75008;BME280;63554;48.940;12.050;2022-11-14T12:04:42;97429.06;;;12.95;57.76
75008;BME280;63554;48.940;12.050;2022-11-14T12:08:56;97437.47;;;12.63;59.61
75008;BME280;63554;48.940;12.050;2022-11-14T12:13:21;97441.59;;;12.05;61.15
75008;BME280;63554;48.940;12.050;2022-11-14T12:22:40;97449.03;;;11.92;62.47
75008;BME280;63554;48.940;12.050;2022-11-14T12:27:04;97462.41;;;13.02;58.71
75008;BME280;63554;48.940;12.050;2022-11-14T12:31:12;97449.81;;;14.02;56.20
75008;BME280;63554;48.940;12.050;2022-11-14T12:35:20;97454.66;;;14.81;51.93
75008;BME280;63554;48.940;12.050;2022-11-14T12:39:25;97458.44;;;15.43;50.32
75008;BME280;63554;48.940;12.050;2022-11-14T12:43:33;97455.84;;;14.04;53.23
75008;BME280;63554;48.940;12.050;2022-11-14T12:52:47;97471.91;;;10.70;64.03
75008;BME280;63554;48.940;12.050;2022-11-14T12:57:01;97470.69;;;10.66;65.61
75008;BME280;63554;48.940;12.050;2022-11-14T13:01:23;97478.09;;;10.84;66.16
75008;BME280;63554;48.940;12.050;2022-11-14T13:05:43;97469.25;;;10.63;66.84
75008;BME280;63554;48.940;12.050;2022-11-14T13:10:00;97478.31;;;10.82;66.61
75008;BME280;63554;48.940;12.050;2022-11-14T13:14:06;97475.25;;;11.04;64.95
75008;BME280;63554;48.940;12.050;2022-11-14T13:18:30;97470.88;;;11.03;65.14
75008;BME280;63554;48.940;12.050;2022-11-14T13:22:52;97486.50;;;11.01;65.14
75008;BME280;63554;48.940;12.050;2022-11-14T13:27:25;97492.59;;;11.46;63.72
75008;BME280;63554;48.940;12.050;2022-11-14T13:31:49;97490.78;;;11.65;62.34
75008;BME280;63554;48.940;12.050;2022-11-14T13:35:56;97478.63;;;12.30;61.43
75008;BME280;63554;48.940;12.050;2022-11-14T13:40:10;97473.59;;;11.97;61.25
75008;BME280;63554;48.940;12.050;2022-11-14T13:49:05;97479.78;;;12.41;60.41
75008;BME280;63554;48.940;12.050;2022-11-14T13:53:16;97482.94;;;12.19;60.49
75008;BME280;63554;48.940;12.050;2022-11-14T13:57:26;97484.41;;;13.24;58.15
75008;BME280;63554;48.940;12.050;2022-11-14T14:01:42;97485.34;;;13.18;56.90
75008;BME280;63554;48.940;12.050;2022-11-14T14:05:58;97482.28;;;13.26;57.10
75008;BME280;63554;48.940;12.050;2022-11-14T14:10:17;97473.88;;;13.16;57.19
75008;BME280;63554;48.940;12.050;2022-11-14T14:14:48;97472.19;;;13.57;56.49
75008;BME280;63554;48.940;12.050;2022-11-14T14:19:01;97456.78;;;14.51;53.88
75008;BME280;63554;48.940;12.050;2022-11-14T14:23:17;97458.47;;;14.97;51.93
75008;BME280;63554;48.940;12.050;2022-11-14T14:27:28;97458.13;;;13.72;53.54
75008;BME280;63554;48.940;12.050;2022-11-14T14:31:36;97454.09;;;13.51;54.52
75008;BME280;63554;48.940;12.050;2022-11-14T14:35:48;97451.63;;;13.50;55.18
75008;BME280;63554;48.940;12.050;2022-11-14T14:39:56;97439.72;;;14.15;53.58
75008;BME280;63554;48.940;12.050;2022-11-14T14:44:01;97442.41;;;14.27;53.17
75008;BME280;63554;48.940;12.050;2022-11-14T14:48:09;97445.81;;;13.81;54.42
75008;BME280;63554;48.940;12.050;2022-11-14T14:52:20;97452.97;;;13.17;57.60
75008;BME280;63554;48.940;12.050;2022-11-14T14:56:26;97449.16;;;12.64;60.64
75008;BME280;63554;48.940;12.050;2022-11-14T15:00:31;97448.22;;;12.10;62.63
75008;BME280;63554;48.940;12.050;2022-11-14T15:04:35;97450.50;;;11.51;65.09
75008;BME280;63554;48.940;12.050;2022-11-14T15:08:40;97445.84;;;10.82;67.38
75008;BME280;63554;48.940;12.050;2022-11-14T15:12:43;97441.03;;;10.07;69.94
75008;BME280;63554;48.940;12.050;2022-11-14T15:16:48;97449.06;;;9.56;72.12
75008;BME280;63554;48.940;12.050;2022-11-14T15:21:13;97444.56;;;9.09;74.00
75008;BME280;63554;48.940;12.050;2022-11-14T15:25:18;97438.69;;;8.79;74.84
75008;BME280;63554;48.940;12.050;2022-11-14T15:29:23;97444.09;;;8.59;75.11
75008;BME280;63554;48.940;12.050;2022-11-14T15:33:29;97432.81;;;8.42;75.23
75008;BME280;63554;48.940;12.050;2022-11-14T15:37:32;97443.25;;;8.59;74.72
75008;BME280;63554;48.940;12.050;2022-11-14T15:41:41;97440.72;;;8.50;75.04
75008;BME280;63554;48.940;12.050;2022-11-14T15:45:44;97439.28;;;8.48;75.15
75008;BME280;63554;48.940;12.050;2022-11-14T15:49:59;97436.38;;;8.43;75.32
75008;BME280;63554;48.940;12.050;2022-11-14T15:54:03;97442.78;;;8.42;75.31
75008;BME280;63554;48.940;12.050;2022-11-14T15:58:08;97431.13;;;8.35;75.51
75008;BME280;63554;48.940;12.050;2022-11-14T16:02:30;97435.25;;;8.30;75.46
75008;BME280;63554;48.940;12.050;2022-11-14T16:06:36;97434.13;;;8.60;85.06
75008;BME280;63554;48.940;12.050;2022-11-14T16:10:39;97432.06;;;8.95;84.37
75008;BME280;63554;48.940;12.050;2022-11-14T16:14:41;97426.03;;;9.26;81.54
75008;BME280;63554;48.940;12.050;2022-11-14T16:18:45;97433.66;;;9.56;81.73
75008;BME280;63554;48.940;12.050;2022-11-14T16:22:50;97431.38;;;9.60;80.30
75008;BME280;63554;48.940;12.050;2022-11-14T16:26:53;97430.72;;;9.71;79.68
75008;BME280;63554;48.940;12.050;2022-11-14T16:30:58;97429.91;;;9.70;79.53
75008;BME280;63554;48.940;12.050;2022-11-14T16:35:00;97426.59;;;9.62;79.89
75008;BME280;63554;48.940;12.050;2022-11-14T16:39:04;97417.47;;;9.56;74.82
75008;BME280;63554;48.940;12.050;2022-11-14T16:43:12;97430.81;;;9.11;71.75
75008;BME280;63554;48.940;12.050;2022-11-14T16:47:17;97419.31;;;8.36;73.17
75008;BME280;63554;48.940;12.050;2022-11-14T16:51:20;97432.63;;;7.82;74.69
75008;BME280;63554;48.940;12.050;2022-11-14T16:55:44;97420.31;;;7.31;77.50
75008;BME280;63554;48.940;12.050;2022-11-14T16:59:46;97431.28;;;7.30;77.24
75008;BME280;63554;48.940;12.050;2022-11-14T17:03:51;97433.25;;;7.21;76.98
75008;BME280;63554;48.940;12.050;2022-11-14T17:07:54;97434.28;;;7.13;77.22
75008;BME280;63554;48.940;12.050;2022-11-14T17:11:59;97428.06;;;6.91;77.74
75008;BME280;63554;48.940;12.050;2022-11-14T17:16:02;97427.97;;;6.78;78.11
75008;BME280;63554;48.940;12.050;2022-11-14T17:20:06;97433.44;;;6.63;78.74
75008;BME280;63554;48.940;12.050;2022-11-14T17:24:11;97433.94;;;6.52;78.87
75008;BME280;63554;48.940;12.050;2022-11-14T17:28:15;97426.19;;;6.42;78.66
75008;BME280;63554;48.940;12.050;2022-11-14T17:32:18;97419.38;;;6.25;80.11
75008;BME280;63554;48.940;12.050;2022-11-14T17:36:21;97431.44;;;5.63;82.39
75008;BME280;63554;48.940;12.050;2022-11-14T17:40:24;97420.25;;;5.59;83.27
75008;BME280;63554;48.940;12.050;2022-11-14T17:44:28;97420.13;;;5.82;84.27
75008;BME280;63554;48.940;12.050;2022-11-14T17:48:31;97403.13;;;6.11;84.39
75008;BME280;63554;48.940;12.050;2022-11-14T17:52:34;97424.50;;;5.98;82.02
75008;BME280;63554;48.940;12.050;2022-11-14T17:56:37;97425.69;;;5.81;82.48
75008;BME280;63554;48.940;12.050;2022-11-14T18:00:50;97413.38;;;5.71;82.06
75008;BME280;63554;48.940;12.050;2022-11-14T18:04:54;97425.88;;;5.64;82.55
75008;BME280;63554;48.940;12.050;2022-11-14T18:08:56;97433.03;;;5.57;82.33
75008;BME280;63554;48.940;12.050;2022-11-14T18:13:01;97421.47;;;5.42;82.39
75008;BME280;63554;48.940;12.050;2022-11-14T18:17:06;97419.41;;;5.44;82.18
75008;BME280;63554;48.940;12.050;2022-11-14T18:21:15;97421.81;;;5.39;83.39
75008;BME280;63554;48.940;12.050;2022-11-14T18:25:18;97435.88;;;5.41;82.75
75008;BME280;63554;48.940;12.050;2022-11-14T18:29:21;97431.66;;;5.31;82.43
75008;BME280;63554;48.940;12.050;2022-11-14T18:33:25;97442.00;;;5.34;84.07
75008;BME280;63554;48.940;12.050;2022-11-14T18:37:28;97438.66;;;5.32;84.08
75008;BME280;63554;48.940;12.050;2022-11-14T18:41:33;97445.25;;;4.92;85.65
75008;BME280;63554;48.940;12.050;2022-11-14T18:45:35;97448.97;;;4.91;85.21
75008;BME280;63554;48.940;12.050;2022-11-14T18:49:39;97442.78;;;4.90;85.39
75008;BME280;63554;48.940;12.050;2022-11-14T18:53:43;97447.50;;;4.88;85.30
75008;BME280;63554;48.940;12.050;2022-11-14T18:57:46;97449.38;;;4.80;86.02
75008;BME280;63554;48.940;12.050;2022-11-14T19:01:48;97442.56;;;4.77;85.58
75008;BME280;63554;48.940;12.050;2022-11-14T19:05:53;97444.59;;;4.75;85.01
75008;BME280;63554;48.940;12.050;2022-11-14T19:09:56;97443.56;;;4.76;85.11
75008;BME280;63554;48.940;12.050;2022-11-14T19:14:02;97446.88;;;4.78;84.83
75008;BME280;63554;48.940;12.050;2022-11-14T19:18:07;97437.38;;;4.75;84.37
75008;BME280;63554;48.940;12.050;2022-11-14T19:22:11;97450.78;;;4.75;84.80
75008;BME280;63554;48.940;12.050;2022-11-14T19:26:14;97468.41;;;4.70;84.23
75008;BME280;63554;48.940;12.050;2022-11-14T19:30:18;97476.34;;;4.63;85.92
75008;BME280;63554;48.940;12.050;2022-11-14T19:34:20;97481.38;;;4.58;85.88
75008;BME280;63554;48.940;12.050;2022-11-14T19:38:25;97477.28;;;4.47;84.83
75008;BME280;63554;48.940;12.050;2022-11-14T19:42:28;97474.34;;;4.34;84.10
75008;BME280;63554;48.940;12.050;2022-11-14T19:46:30;97472.41;;;4.28;84.29
75008;BME280;63554;48.940;12.050;2022-11-14T19:50:33;97462.19;;;4.23;84.10
75008;BME280;63554;48.940;12.050;2022-11-14T19:54:37;97471.25;;;4.22;84.33
75008;BME280;63554;48.940;12.050;2022-11-14T19:58:42;97473.13;;;4.13;84.61
75008;BME280;63554;48.940;12.050;2022-11-14T20:02:45;97460.81;;;4.04;85.81
75008;BME280;63554;48.940;12.050;2022-11-14T20:06:48;97466.50;;;4.01;85.73
75008;BME280;63554;48.940;12.050;2022-11-14T20:10:56;97456.50;;;3.95;85.36
75008;BME280;63554;48.940;12.050;2022-11-14T20:14:59;97459.00;;;3.96;85.08
75008;BME280;63554;48.940;12.050;2022-11-14T20:19:02;97457.53;;;3.94;84.41
75008;BME280;63554;48.940;12.050;2022-11-14T20:23:05;97453.88;;;3.87;84.68
75008;BME280;63554;48.940;12.050;2022-11-14T20:27:11;97450.75;;;3.75;84.79
75008;BME280;63554;48.940;12.050;2022-11-14T20:31:15;97430.88;;;3.69;85.40
75008;BME280;63554;48.940;12.050;2022-11-14T20:35:18;97438.06;;;3.69;85.67
75008;BME280;63554;48.940;12.050;2022-11-14T20:39:21;97443.22;;;3.70;85.55
75008;BME280;63554;48.940;12.050;2022-11-14T20:43:26;97440.25;;;3.65;85.65
75008;BME280;63554;48.940;12.050;2022-11-14T20:47:30;97449.97;;;3.58;85.36
75008;BME280;63554;48.940;12.050;2022-11-14T20:51:32;97448.00;;;3.52;85.59
75008;BME280;63554;48.940;12.050;2022-11-14T20:55:36;97449.00;;;3.43;85.08
75008;BME280;63554;48.940;12.050;2022-11-14T20:59:42;97453.41;;;3.35;84.61
75008;BME280;63554;48.940;12.050;2022-11-14T21:03:45;97443.38;;;3.29;84.58
75008;BME280;63554;48.940;12.050;2022-11-14T21:07:47;97447.09;;;3.12;85.45
75008;BME280;63554;48.940;12.050;2022-11-14T21:11:50;97451.28;;;3.06;86.21
75008;BME280;63554;48.940;12.050;2022-11-14T21:15:55;97444.94;;;3.07;86.09
75008;BME280;63554;48.940;12.050;2022-11-14T21:19:58;97459.28;;;3.14;86.12
75008;BME280;63554;48.940;12.050;2022-11-14T21:24:01;97440.72;;;3.21;85.72
75008;BME280;63554;48.940;12.050;2022-11-14T21:28:04;97438.03;;;3.21;85.69
75008;BME280;63554;48.940;12.050;2022-11-14T21:32:08;97443.09;;;3.08;85.63
75008;BME280;63554;48.940;12.050;2022-11-14T21:36:12;97438.25;;;3.03;86.05
75008;BME280;63554;48.940;12.050;2022-11-14T21:40:35;97435.28;;;2.98;86.66
75008;BME280;63554;48.940;12.050;2022-11-14T21:44:38;97442.44;;;2.97;86.72
75008;BME280;63554;48.940;12.050;2022-11-14T21:48:44;97423.06;;;2.95;87.14
75008;BME280;63554;48.940;12.050;2022-11-14T21:52:47;97425.22;;;2.92;87.43
75008;BME280;63554;48.940;12.050;2022-11-14T21:56:50;97426.78;;;2.86;86.63